Time;durP1;ratioP1;P1;durP2;ratioP2;P2;SDS_P1;SDS_P2;PMS_P1;PMS_P2;Temp;Humidity;BMP_temperature;BMP_pressure;BME280_temperature;BME280_humidity;BME280_pressure;Samples;Min_cycle;Max_cycle;Signal;HPM_P1;HPM_P2
2023/01/14 00:01:48;;;;;;;22.20;3.17;;;;;;;;;;5018565;28;20044;-88
2023/01/14 00:04:14;;;;;;;19.20;2.97;;;;;;;;;;5042020;28;20048;-88
2023/01/14 00:06:40;;;;;;;19.45;3.30;;;;;;;;;;5025900;28;20761;-88
2023/01/14 00:09:08;;;;;;;17.90;3.20;;;;;;;;;;5027508;28;20046;-89
2023/01/14 00:11:46;;;;;;;15.57;3.33;;;;;;;;;;5029581;28;20059;-88
2023/01/14 00:14:14;;;;;;;11.75;2.33;;;;;;;;;;5031806;28;20040;-88
2023/01/14 00:16:40;;;;;;;11.38;2.70;;;;;;;;;;5049317;28;20596;-88
2023/01/14 00:19:06;;;;;;;18.08;3.38;;;;;;;;;;5049473;28;20140;-88
2023/01/14 00:21:32;;;;;;;15.30;2.88;;;;;;;;;;5049120;28;20054;-89
2023/01/14 00:23:58;;;;;;;13.60;2.67;;;;;;;;;;5030934;28;20047;-88
2023/01/14 00:26:25;;;;;;;14.70;3.22;;;;;;;;;;5020400;28;20036;-90
2023/01/14 00:28:52;;;;;;;7.20;2.58;;;;;;;;;;5048929;28;20472;-88
2023/01/14 00:31:19;;;;;;;11.88;2.70;;;;;;;;;;5018534;28;20040;-89
2023/01/14 00:33:45;;;;;;;16.08;3.13;;;;;;;;;;5040948;28;20503;-88
2023/01/14 00:36:12;;;;;;;13.63;2.95;;;;;;;;;;5035097;28;20493;-88
2023/01/14 00:38:39;;;;;;;18.42;4.13;;;;;;;;;;5048585;28;20048;-88
2023/01/14 00:41:12;;;;;;;15.30;3.78;;;;;;;;;;5047918;28;20048;-88
2023/01/14 00:43:40;;;;;;;10.65;2.50;;;;;;;;;;5022347;28;20052;-89
2023/01/14 00:46:07;;;;;;;13.18;3.00;;;;;;;;;;5034644;28;20037;-88
2023/01/14 00:48:33;;;;;;;16.92;3.13;;;;;;;;;;5048983;28;20178;-87
2023/01/14 00:50:59;;;;;;;13.32;3.03;;;;;;;;;;5048815;28;20091;-88
2023/01/14 00:53:26;;;;;;;17.40;2.97;;;;;;;;;;5028211;28;20151;-88
2023/01/14 00:55:52;;;;;;;17.83;4.20;;;;;;;;;;5040274;28;20048;-88
2023/01/14 00:58:18;;;;;;;17.75;3.42;;;;;;;;;;5028847;28;20052;-88
2023/01/14 01:00:44;;;;;;;17.73;4.13;;;;;;;;;;5025905;28;20128;-88
2023/01/14 01:03:11;;;;;;;17.58;3.55;;;;;;;;;;5031872;28;20769;-89
2023/01/14 01:05:37;;;;;;;11.55;2.78;;;;;;;;;;5048494;28;20036;-88
2023/01/14 01:08:03;;;;;;;16.75;2.20;;;;;;;;;;5033923;28;20047;-89
2023/01/14 01:10:30;;;;;;;13.80;3.08;;;;;;;;;;5035655;28;20481;-88
2023/01/14 01:12:56;;;;;;;21.10;3.90;;;;;;;;;;5051837;28;20045;-89
2023/01/14 01:15:22;;;;;;;16.65;3.05;;;;;;;;;;5034701;28;20047;-88
2023/01/14 01:17:48;;;;;;;18.95;3.15;;;;;;;;;;5038901;28;20051;-88
2023/01/14 01:20:14;;;;;;;17.73;4.15;;;;;;;;;;5022575;28;20757;-88
2023/01/14 01:22:40;;;;;;;18.60;3.20;;;;;;;;;;5020156;28;20037;-88
2023/01/14 01:25:06;;;;;;;20.98;4.50;;;;;;;;;;5052086;28;20040;-88
2023/01/14 01:27:32;;;;;;;16.85;3.88;;;;;;;;;;5035439;28;20068;-89
2023/01/14 01:29:58;;;;;;;18.92;3.72;;;;;;;;;;5051794;28;20503;-90
2023/01/14 01:32:25;;;;;;;13.73;3.50;;;;;;;;;;5035156;28;20055;-88
2023/01/14 01:34:51;;;;;;;11.60;2.90;;;;;;;;;;5051682;28;20127;-89
2023/01/14 01:37:17;;;;;;;16.77;3.45;;;;;;;;;;5021723;28;20045;-89
2023/01/14 01:39:43;;;;;;;20.50;3.67;;;;;;;;;;5034124;28;20059;-88
2023/01/14 01:42:13;;;;;;;14.43;3.20;;;;;;;;;;5023448;28;20638;-89
2023/01/14 01:44:39;;;;;;;21.88;3.65;;;;;;;;;;5029339;28;20040;-88
2023/01/14 01:47:05;;;;;;;16.58;3.10;;;;;;;;;;5025311;28;20050;-88
2023/01/14 01:49:34;;;;;;;14.40;2.75;;;;;;;;;;5035172;28;20036;-88
2023/01/14 01:52:02;;;;;;;15.05;2.97;;;;;;;;;;5047275;28;20048;-89
2023/01/14 01:54:31;;;;;;;13.65;2.92;;;;;;;;;;5051454;28;20040;-89
2023/01/14 01:56:58;;;;;;;19.40;3.47;;;;;;;;;;5051740;28;20044;-89
2023/01/14 01:59:25;;;;;;;23.58;3.88;;;;;;;;;;5025672;28;20076;-89
2023/01/14 02:01:52;;;;;;;12.70;2.75;;;;;;;;;;5020787;28;20538;-89
2023/01/14 02:04:18;;;;;;;12.30;2.50;;;;;;;;;;5043857;28;20033;-89
2023/01/14 02:06:44;;;;;;;19.27;2.75;;;;;;;;;;5015058;28;20510;-89
2023/01/14 02:09:13;;;;;;;19.50;3.67;;;;;;;;;;5051136;28;20044;-88
2023/01/14 02:11:45;;;;;;;18.48;3.42;;;;;;;;;;5051198;28;20048;-88
2023/01/14 02:14:17;;;;;;;13.98;2.90;;;;;;;;;;5029701;28;20055;-89
2023/01/14 02:16:59;;;;;;;19.10;3.83;;;;;;;;;;5043263;28;20044;-89
2023/01/14 02:19:44;;;;;;;13.98;3.50;;;;;;;;;;5036240;28;20680;-89
2023/01/14 02:22:34;;;;;;;15.43;3.83;;;;;;;;;;5050676;28;20529;-89
2023/01/14 02:25:17;;;;;;;17.27;3.05;;;;;;;;;;5051128;28;20294;-88
2023/01/14 02:28:05;;;;;;;28.23;5.00;;;;;;;;;;5050887;28;20033;-89
2023/01/14 02:30:37;;;;;;;16.15;3.63;;;;;;;;;;5034357;28;20123;-88
2023/01/14 02:33:06;;;;;;;11.27;2.78;;;;;;;;;;5050919;28;20044;-89
2023/01/14 02:35:37;;;;;;;15.52;2.97;;;;;;;;;;5034410;28;20051;-89
2023/01/14 02:38:17;;;;;;;16.25;3.55;;;;;;;;;;5036747;28;20040;-89
2023/01/14 02:41:21;;;;;;;16.38;3.83;;;7.70;99.90;;;;;;5050640;28;20056;-89
2023/01/14 02:44:07;;;;;;;21.77;3.45;;;;;;;;;;4995934;28;20052;-89
2023/01/14 02:46:34;;;;;;;19.27;3.20;;;;;;;;;;5044560;28;20045;-88
2023/01/14 02:49:04;;;;;;;14.63;3.70;;;7.20;99.90;;;;;;5014190;28;20036;-89
2023/01/14 02:51:31;;;;;;;13.98;3.58;;;;;;;;;;5031994;28;20041;-88
2023/01/14 02:53:57;;;;;;;15.13;3.45;;;;;;;;;;5050593;28;20402;-89
2023/01/14 02:56:23;;;;;;;17.40;3.13;;;;;;;;;;5050375;28;20040;-89
2023/01/14 02:58:49;;;;;;;16.65;3.80;;;;;;;;;;5049843;28;20498;-89
2023/01/14 03:01:24;;;;;;;21.13;4.28;;;;;;;;;;5035996;28;20048;-89
2023/01/14 03:04:05;;;;;;;26.33;4.20;;;;;;;;;;5033678;28;20036;-89
2023/01/14 03:06:48;;;;;;;14.60;3.55;;;;;;;;;;5050474;28;20498;-89
2023/01/14 03:09:20;;;;;;;13.10;3.47;;;;;;;;;;5033553;28;20452;-89
2023/01/14 03:11:55;;;;;;;15.25;2.88;;;7.10;99.90;;;;;;5021901;28;20055;-89
2023/01/14 03:14:28;;;;;;;16.95;3.20;;;;;;;;;;5019417;28;20040;-88
2023/01/14 03:17:02;;;;;;;15.93;3.15;;;;;;;;;;5050479;28;20048;-88
2023/01/14 03:19:37;;;;;;;12.90;2.97;;;;;;;;;;5030318;28;20128;-88
2023/01/14 03:22:05;;;;;;;23.88;3.97;;;;;;;;;;5050366;28;20048;-89
2023/01/14 03:24:40;;;;;;;14.90;3.00;;;;;;;;;;5050383;28;20047;-89
2023/01/14 03:27:08;;;;;;;16.63;5.10;;;;;;;;;;5050607;28;20439;-88
2023/01/14 03:29:37;;;;;;;17.88;4.03;;;;;;;;;;5049834;28;20064;-88
2023/01/14 03:32:06;;;;;;;24.98;3.90;;;;;;;;;;5033108;28;20094;-88
2023/01/14 03:34:36;;;;;;;17.73;3.10;;;;;;;;;;5033615;28;20041;-88
2023/01/14 03:37:03;;;;;;;17.17;3.03;;;;;;;;;;5033496;28;20078;-88
2023/01/14 03:39:29;;;;;;;15.20;3.47;;;;;;;;;;5049753;28;20108;-89
2023/01/14 03:44:52;;;;;;;19.67;3.08;;;;;;;;;;5049547;28;20078;-89
2023/01/14 03:47:22;;;;;;;22.27;4.10;;;;;;;;;;5049865;28;20073;-88
2023/01/14 03:49:49;;;;;;;23.67;3.67;;;;;;;;;;5033200;28;20449;-88
2023/01/14 03:52:31;;;;;;;18.50;3.58;;;;;;;;;;5033072;28;20048;-88
2023/01/14 03:55:01;;;;;;;19.00;3.45;;;;;;;;;;5033290;28;20051;-88
2023/01/14 03:57:27;;;;;;;19.85;3.88;;;;;;;;;;5033509;28;20119;-89
2023/01/14 04:00:01;;;;;;;20.65;3.20;;;;;;;;;;5050050;28;20127;-88
2023/01/14 04:02:28;;;;;;;14.65;3.05;;;;;;;;;;5032940;28;20052;-88
2023/01/14 04:04:54;;;;;;;8.80;3.45;;;;;;;;;;5049659;28;20040;-89
2023/01/14 04:07:21;;;;;;;15.98;2.97;;;;;;;;;;5032007;28;20393;-88
2023/01/14 04:09:47;;;;;;;18.38;3.83;;;;;;;;;;5021014;28;20565;-88
2023/01/14 04:12:13;;;;;;;16.75;2.95;;;;;;;;;;5032951;28;20040;-88
2023/01/14 04:17:23;;;;;;;17.83;3.83;;;;;;;;;;5049210;28;20044;-88
2023/01/14 04:19:49;;;;;;;11.38;3.58;;;;;;;;;;5034374;28;20039;-88
2023/01/14 04:22:15;;;;;;;14.55;3.13;;;;;;;;;;5048705;28;20040;-88
2023/01/14 04:24:41;;;;;;;14.82;3.45;;;;;;;;;;5032676;28;20055;-89
2023/01/14 04:27:07;;;;;;;18.10;2.92;;;;;;;;;;5032424;28;20040;-88
2023/01/14 04:29:33;;;;;;;14.35;2.80;;;;;;;;;;5026449;28;20037;-89
2023/01/14 04:31:59;;;;;;;19.15;3.22;;;;;;;;;;5025013;28;20044;-88
2023/01/14 04:34:25;;;;;;;19.70;3.85;;;;;;;;;;5046157;28;20387;-88
2023/01/14 04:36:51;;;;;;;21.40;3.63;;;;;;;;;;5032056;28;20051;-88
2023/01/14 04:39:17;;;;;;;13.73;2.60;;;;;;;;;;5034555;28;20541;-88
2023/01/14 04:44:28;;;;;;;17.58;3.47;;;;;;;;;;5052904;28;20072;-88
2023/01/14 04:46:54;;;;;;;21.25;4.05;;;;;;;;;;5036104;28;20048;-89
2023/01/14 04:49:20;;;;;;;15.93;3.72;;;;;;;;;;5022177;28;20433;-88
2023/01/14 04:51:46;;;;;;;19.20;3.75;;;;;;;;;;5052427;28;20040;-88
2023/01/14 04:54:12;;;;;;;30.15;5.18;;;;;;;;;;5052460;28;20474;-88
2023/01/14 04:56:38;;;;;;;20.13;4.32;;;;;;;;;;5052831;28;20132;-88
2023/01/14 04:59:04;;;;;;;18.92;3.40;;;;;;;;;;5052464;28;20098;-88
2023/01/14 05:01:30;;;;;;;26.90;4.18;;;;;;;;;;5052395;28;20097;-89
2023/01/14 05:03:58;;;;;;;21.58;4.03;;;;;;;;;;5035565;28;20047;-89
2023/01/14 05:06:29;;;;;;;14.63;3.17;;;;;;;;;;5035888;28;20148;-88
2023/01/14 05:08:55;;;;;;;25.23;3.95;;;;;;;;;;5035507;28;20051;-88
2023/01/14 05:11:21;;;;;;;14.20;4.47;;;;;;;;;;5041998;28;20071;-88
2023/01/14 05:13:47;;;;;;;23.70;4.13;;;;;;;;;;5032363;28;20506;-88
2023/01/14 05:16:16;;;;;;;17.92;3.95;;;;;;;;;;5052327;28;20051;-88
2023/01/14 05:18:42;;;;;;;17.75;4.15;;;;;;;;;;5052381;28;20052;-88
2023/01/14 05:21:08;;;;;;;20.33;3.95;;;;;;;;;;5028386;28;20467;-88
2023/01/14 05:23:34;;;;;;;16.42;3.42;;;;;;;;;;5045273;28;20124;-88
2023/01/14 05:26:00;;;;;;;22.60;4.57;;;;;;;;;;5016212;28;20179;-88
2023/01/14 05:28:26;;;;;;;21.92;3.97;;;;;;;;;;5026701;28;20649;-89
2023/01/14 05:30:52;;;;;;;22.05;4.63;;;;;;;;;;5051671;28;20040;-89
2023/01/14 05:33:18;;;;;;;25.23;4.80;;;;;;;;;;5051698;28;20051;-86
2023/01/14 05:35:44;;;;;;;18.80;4.70;;;;;;;;;;5035374;28;20067;-88
2023/01/14 05:38:10;;;;;;;21.50;4.13;;;;;;;;;;5027955;28;20094;-88
2023/01/14 05:40:36;;;;;;;26.45;4.60;;;;;;;;;;5034833;28;20069;-88
2023/01/14 05:45:51;;;;;;;28.33;5.15;;;;;;;;;;5031830;28;20045;-88
2023/01/14 05:48:19;;;;;;;22.08;3.92;;;;;;;;;;5028383;28;20044;-88
2023/01/14 05:50:45;;;;;;;23.10;5.50;;;;;;;;;;5031862;28;20060;-88
2023/01/14 05:53:11;;;;;;;23.50;4.22;;;;;;;;;;5028539;28;20049;-88
2023/01/14 05:55:37;;;;;;;21.05;4.22;;;;;;;;;;5042603;28;20044;-89
2023/01/14 05:58:04;;;;;;;21.02;4.78;;;;;;;;;;5051499;28;20040;-88
2023/01/14 06:06:24;;;;;;;25.60;4.22;;;;;;;;;;5044866;28;20041;-88
2023/01/14 06:08:54;;;;;;;22.85;4.53;;;;;;;;;;5032615;28;20037;-88
2023/01/14 06:11:20;;;;;;;13.15;4.45;;;;;;;;;;5024053;28;20056;-88
2023/01/14 06:13:51;;;;;;;19.95;4.57;;;;;;;;;;5047902;28;20125;-89
2023/01/14 06:16:18;;;;;;;14.90;4.65;;;;;;;;;;5034895;28;20044;-88
2023/01/14 06:18:44;;;;;;;27.30;4.68;;;;;;;;;;5020764;28;20760;-88
2023/01/14 06:21:12;;;;;;;20.48;4.57;;;;;;;;;;5050836;28;20041;-88
2023/01/14 06:23:38;;;;;;;26.27;4.35;;;;;;;;;;5051664;28;20049;-88
2023/01/14 06:26:04;;;;;;;22.35;5.45;;;;;;;;;;5051113;28;20048;-88
2023/01/14 06:28:30;;;;;;;31.58;5.70;;;;;;;;;;5023068;28;20118;-88
2023/01/14 06:30:56;;;;;;;27.75;5.10;;;;;;;;;;5045187;28;20554;-88
2023/01/14 06:33:22;;;;;;;27.88;6.03;;;;;;;;;;5024903;28;20046;-88
2023/01/14 06:35:49;;;;;;;32.30;6.93;;;;;;;;;;5047165;28;20048;-88
2023/01/14 06:38:15;;;;;;;32.22;6.78;;;;;;;;;;5034452;28;20785;-88
2023/01/14 06:40:44;;;;;;;19.80;5.40;;;;;;;;;;5050489;28;20131;-88
2023/01/14 06:43:10;;;;;;;33.05;8.13;;;;;;;;;;5027546;28;20059;-88
2023/01/14 06:45:36;;;;;;;22.02;6.60;;;;;;;;;;5043504;28;20088;-89
2023/01/14 06:48:02;;;;;;;27.92;6.78;;;;;;;;;;5050736;28;20478;-88
2023/01/14 06:50:28;;;;;;;30.02;6.20;;;;;;;;;;5050330;28;20093;-88
2023/01/14 06:52:58;;;;;;;29.50;6.88;;;;;;;;;;5050362;28;20507;-88
2023/01/14 06:55:24;;;;;;;30.58;5.57;;;;;;;;;;5033741;28;20186;-89
2023/01/14 06:57:50;;;;;;;33.70;6.15;;;;;;;;;;5050323;28;20126;-88
2023/01/14 07:00:17;;;;;;;28.35;6.72;;;;;;;;;;5033562;28;20620;-89
2023/01/14 07:02:43;;;;;;;28.92;6.50;;;;;;;;;;5019893;28;20049;-88
2023/01/14 07:05:09;;;;;;;21.25;5.13;;;;;;;;;;5032959;28;20043;-88
2023/01/14 07:07:35;;;;;;;29.90;6.10;;;;;;;;;;5046371;28;20046;-88
2023/01/14 07:10:01;;;;;;;28.85;5.28;;;;;;;;;;5033519;28;20036;-88
2023/01/14 07:12:27;;;;;;;26.02;5.22;;;;;;;;;;5033281;28;20560;-88
2023/01/14 07:14:53;;;;;;;31.98;5.03;;;;;;;;;;5022105;28;20044;-88
2023/01/14 07:17:19;;;;;;;29.45;5.35;;;;;;;;;;5027441;28;20406;-88
2023/01/14 07:19:45;;;;;;;29.90;6.03;;;;;;;;;;5040273;28;20056;-88
2023/01/14 07:22:11;;;;;;;28.80;7.20;;;;;;;;;;5049645;28;20045;-88
2023/01/14 07:24:37;;;;;;;30.90;5.90;;;;;;;;;;5049805;28;20064;-89
2023/01/14 07:27:04;;;;;;;21.42;5.75;;;;;;;;;;5033804;28;20055;-88
2023/01/14 07:29:30;;;;;;;29.27;5.60;;;;;;;;;;5048261;28;20050;-87
2023/01/14 07:31:56;;;;;;;28.15;6.07;;;;;;;;;;5050184;28;20147;-88
2023/01/14 07:34:22;;;;;;;24.33;5.50;;;;;;;;;;5033323;28;20048;-88
2023/01/14 07:36:48;;;;;;;37.83;6.35;;;;;;;;;;5033718;28;20498;-88
2023/01/14 07:39:14;;;;;;;30.00;8.07;;;;;;;;;;5049823;28;20064;-88
2023/01/14 07:41:40;;;;;;;30.35;7.93;;;;;;;;;;5049668;28;20087;-87
2023/01/14 07:44:06;;;;;;;24.67;5.88;;;;;;;;;;5033033;28;20792;-90
2023/01/14 07:46:33;;;;;;;24.70;5.45;;;;;;;;;;5033622;28;20044;-92
2023/01/14 07:49:02;;;;;;;33.85;6.72;;;;;;;;;;5051190;28;20044;-89
2023/01/14 07:51:28;;;;;;;25.23;6.30;;;;;;;;;;5034609;28;20563;-92
2023/01/14 07:53:54;;;;;;;32.72;6.63;;;;;;;;;;5053948;28;20044;-90
2023/01/14 07:56:20;;;;;;;24.98;5.20;;;;;;;;;;5035054;28;20483;-91
2023/01/14 07:58:48;;;;;;;29.85;5.95;;;;;;;;;;5034290;28;20561;-89
2023/01/14 08:01:14;;;;;;;25.58;5.20;;;;;;;;;;5049922;28;20040;-91
2023/01/14 08:03:40;;;;;;;23.08;5.75;;;;;;;;;;5033609;28;20414;-91
2023/01/14 08:06:06;;;;;;;32.30;6.43;;;;;;;;;;5047283;28;20497;-91
2023/01/14 08:08:33;;;;;;;31.92;5.45;;;;;;;;;;5033533;28;20051;-90
2023/01/14 08:11:02;;;;;;;24.80;5.32;;;;;;;;;;5029832;28;20482;-90
2023/01/14 08:13:35;;;;;;;18.55;5.60;;;;;;;;;;5036197;28;20075;-94
2023/01/14 08:16:09;;;;;;;31.35;5.30;;;;;;;;;;5070137;28;20052;-94
2023/01/14 08:18:40;;;;;;;26.92;5.40;;;;;;;;;;5031648;28;20550;-89
2023/01/14 08:21:07;;;;;;;20.65;4.35;;;;;;;;;;5049495;28;20059;-88
2023/01/14 08:23:34;;;;;;;25.42;6.00;;;;;;;;;;5021126;28;20494;-92
2023/01/14 08:26:03;;;;;;;23.45;4.85;;;;;;;;;;5049211;28;20041;-91
2023/01/14 08:28:29;;;;;;;25.80;5.30;;;;;;;;;;5035284;28;20037;-90
2023/01/14 08:31:21;;;;;;;30.05;5.82;;;;;;;;;;5051302;28;20132;-89
2023/01/14 08:33:47;;;;;;;25.70;6.32;;;;;;;;;;5047126;28;20063;-89
2023/01/14 08:36:14;;;;;;;26.58;5.65;;;;;;;;;;5032520;28;20044;-90
2023/01/14 08:38:41;;;;;;;24.75;5.32;;;;;;;;;;5032460;28;20048;-89
2023/01/14 08:41:08;;;;;;;22.00;4.78;;;;;;;;;;5049262;28;20426;-88
2023/01/14 08:43:34;;;;;;;31.67;4.38;;;;;;;;;;5049157;28;20071;-91
2023/01/14 08:46:01;;;;;;;24.80;4.85;;;;;;;;;;5032800;28;20048;-90
2023/01/14 08:48:27;;;;;;;26.20;5.13;;;;;;;;;;5032619;28;20048;-89
2023/01/14 08:50:53;;;;;;;29.40;5.57;;;;;;;;;;5049206;28;20552;-91
2023/01/14 08:53:19;;;;;;;19.58;4.43;;;;;;;;;;5033025;28;20043;-88
2023/01/14 08:55:45;;;;;;;29.48;4.40;;;;;;;;;;5049447;28;20052;-89
2023/01/14 08:58:13;;;;;;;17.42;4.63;;;;;;;;;;5032677;28;20729;-88
2023/01/14 09:00:39;;;;;;;28.77;4.03;;;;;;;;;;5049150;28;20071;-88
2023/01/14 09:03:05;;;;;;;24.60;4.03;;;;;;;;;;5048972;28;20048;-87
2023/01/14 09:05:32;;;;;;;23.13;4.00;;;;;;;;;;5049534;28;20040;-90
2023/01/14 09:18:59;;;;;;;;;;;;;;;;;;5049667;28;20049;-89
2023/01/14 09:21:25;;;;;;;14.05;3.88;;;;;;;;;;5049628;28;20302;-88
2023/01/14 09:23:51;;;;;;;17.98;3.60;;;;;;;;;;5049264;28;20048;-87
2023/01/14 09:26:20;;;;;;;18.75;4.30;;;;;;;;;;5049013;28;20036;-86
2023/01/14 09:28:46;;;;;;;17.88;3.88;;;;;;;;;;5036857;28;20045;-89
2023/01/14 09:31:12;;;;;;;22.05;4.40;;;;;;;;;;5052691;28;20101;-87
2023/01/14 09:33:38;;;;;;;8.40;3.28;;;;;;;;;;5040792;28;20045;-90
2023/01/14 09:36:04;;;;;;;15.25;3.83;;;;;;;;;;5051306;28;20053;-87
2023/01/14 09:38:30;;;;;;;14.20;3.33;;;;;;;;;;5035653;28;20165;-90
2023/01/14 09:40:56;;;;;;;18.05;4.22;;;;;;;;;;5049700;28;20647;-89
2023/01/14 09:43:23;;;;;;;15.85;3.70;;;;;;;;;;5024347;28;20079;-89
2023/01/14 09:45:51;;;;;;;18.30;3.85;;;;;;;;;;5035659;28;20807;-88
2023/01/14 09:48:20;;;;;;;12.70;2.92;;;;;;;;;;5052509;28;20379;-88
2023/01/14 09:50:55;;;;;;;18.67;4.57;;;;;;;;;;5052636;28;20097;-87
2023/01/14 09:53:22;;;;;;;;;;;;;;;;;;5038976;28;20040;-88
2023/01/14 09:56:01;;;;;;;11.20;3.03;;;;;;;;;;5035492;28;19916;-88
2023/01/14 09:59:07;;;;;;;11.23;3.05;;;7.10;99.90;;;;;;5035855;28;20040;-88
2023/01/14 10:01:39;;;;;;;10.20;3.70;;;;;;;;;;4971430;28;20154;-88
2023/01/14 10:04:08;;;;;;;12.60;3.85;;;;;;;;;;5025050;28;20048;-89
2023/01/14 10:06:35;;;;;;;10.90;3.20;;;;;;;;;;5051758;28;20037;-88
2023/01/14 10:09:06;;;;;;;11.07;2.72;;;;;;;;;;5051862;28;20051;-88
2023/01/14 10:11:36;;;;;;;11.40;3.72;;;;;;;;;;5051625;28;20044;-88
2023/01/14 10:14:08;;;;;;;7.50;3.30;;;;;;;;;;5051906;28;20055;-89
2023/01/14 10:16:37;;;;;;;14.82;4.28;;;;;;;;;;5023635;28;20049;-89
2023/01/14 10:19:12;;;;;;;11.50;3.35;;;;;;;;;;5050283;28;20459;-88
2023/01/14 10:21:41;;;;;;;;;;;7.00;99.90;;;;;;5033204;28;20048;-92
2023/01/14 10:24:10;;;;;;;8.80;3.03;;;;;;;;;;5047306;28;20485;-89
2023/01/14 10:26:38;;;;;;;7.53;2.78;;;;;;;;;;5035222;28;20469;-88
2023/01/14 10:29:10;;;;;;;7.28;3.15;;;;;;;;;;5037780;28;20048;-88
2023/01/14 10:31:37;;;;;;;4.40;2.15;;;;;;;;;;5035196;28;20043;-89
2023/01/14 10:34:03;;;;;;;7.00;2.60;;;;;;;;;;5021729;28;20044;-87
2023/01/14 10:36:30;;;;;;;5.45;2.85;;;;;;;;;;5035268;28;20044;-89
2023/01/14 10:39:02;;;;;;;13.02;3.03;;;;;;;;;;5052175;28;20045;-90
2023/01/14 10:44:29;;;;;;;10.18;2.83;;;7.40;99.90;;;;;;5047743;28;20075;-89
2023/01/14 10:47:02;;;;;;;6.88;2.67;;;;;;;;;;5035251;28;20047;-88
2023/01/14 10:49:50;;;;;;;7.93;4.68;;;;;;;;;;5052427;28;20048;-90
2023/01/14 10:52:23;;;;;;;5.43;2.78;;;;;;;;;;5051246;28;20048;-87
2023/01/14 10:55:00;;;;;;;4.22;2.15;;;7.60;99.90;;;;;;5051697;28;20037;-91
2023/01/14 10:57:28;;;;;;;4.43;1.70;;;;;;;;;;5034475;28;20047;-87
2023/01/14 10:59:55;;;;;;;5.95;2.25;;;;;;;;;;5051012;28;20162;-88
2023/01/14 11:02:22;;;;;;;8.73;2.20;;;;;;;;;;5051741;28;20136;-90
2023/01/14 11:04:48;;;;;;;6.70;2.95;;;;;;;;;;5053641;28;20047;-89
2023/01/14 11:07:24;;;;;;;3.67;2.25;;;;;;;;;;5055228;28;20425;-91
2023/01/14 11:09:50;;;;;;;5.30;2.40;;;;;;;;;;5052009;28;20048;-89
2023/01/14 11:12:27;;;;;;;6.43;2.70;;;;;;;;;;5051594;28;20044;-92
2023/01/14 11:14:53;;;;;;;7.60;2.83;;;;;;;;;;5051875;28;20080;-90
2023/01/14 11:17:21;;;;;;;5.35;2.50;;;;;;;;;;5035292;28;20032;-89
2023/01/14 11:19:47;;;;;;;6.95;2.55;;;;;;;;;;5051734;28;20060;-91
2023/01/14 11:22:14;;;;;;;8.77;2.70;;;;;;;;;;5034627;28;20044;-88
2023/01/14 11:24:48;;;;;;;5.78;2.00;;;;;;;;;;5051307;28;20079;-89
2023/01/14 11:27:18;;;;;;;11.10;2.65;;;;;;;;;;5033485;28;20045;-88
2023/01/14 11:29:46;;;;;;;6.05;2.63;;;;;;;;;;5039964;28;20105;-88
2023/01/14 11:32:13;;;;;;;7.82;2.13;;;;;;;;;;5051726;28;20037;-87
2023/01/14 11:34:47;;;;;;;4.65;2.40;;;;;;;;;;5052038;28;20474;-88
2023/01/14 11:37:17;;;;;;;5.43;2.20;;;;;;;;;;5035561;28;20044;-86
2023/01/14 11:39:57;;;;;;;7.15;1.95;;;7.60;99.90;;;;;;5035037;28;20059;-86
2023/01/14 11:42:31;;;;;;;6.03;2.25;;;;;;;;;;5051798;28;20037;-86
2023/01/14 11:45:01;;;;;;;4.10;2.30;;;;;;;;;;5028411;28;20437;-86
2023/01/14 11:47:29;;;;;;;6.38;2.30;;;7.60;99.90;;;;;;5045976;28;20093;-86
2023/01/14 11:50:16;;;;;;;6.13;2.50;;;7.80;99.90;;;;;;5035265;28;20044;-86
2023/01/14 11:52:56;;;;;;;3.83;2.47;;;;;;;;;;5048375;28;20044;-88
2023/01/14 11:55:23;;;;;;;5.47;2.47;;;7.80;99.90;;;;;;5051968;28;20135;-87
2023/01/14 11:57:49;;;;;;;6.75;2.63;;;;;;;;;;5051641;28;20051;-86
2023/01/14 12:00:15;;;;;;;3.53;2.40;;;;;;;;;;5035300;28;20090;-85
2023/01/14 12:02:45;;;;;;;6.47;2.90;;;;;;;;;;5051634;28;20414;-84
2023/01/14 12:05:14;;;;;;;10.15;3.55;;;;;;;;;;5051552;28;20044;-85
2023/01/14 12:07:49;;;;;;;5.15;2.45;;;;;;;;;;5048066;28;20039;-86
2023/01/14 12:10:32;;;;;;;6.13;2.25;;;7.80;99.90;;;;;;5034930;28;20055;-85
2023/01/14 12:19:05;;;;;;;3.67;2.10;;;7.80;99.90;;;;;;5051331;28;20119;-86
2023/01/14 12:21:35;;;;;;;3.58;2.83;;;;;;;;;;5042745;28;20044;-85
2023/01/14 12:24:06;;;;;;;6.35;2.50;;;;;;;;;;5051398;28;20097;-85
2023/01/14 12:26:39;;;;;;;7.75;2.90;;;;;;;;;;5051582;28;20040;-86
2023/01/14 12:29:07;;;;;;;5.85;2.33;;;;;;;;;;5034852;28;20037;-86
2023/01/14 12:31:40;;;;;;;6.00;2.28;;;8.20;99.90;;;;;;5042385;28;20048;-86
2023/01/14 12:34:20;;;;;;;7.15;2.22;;;8.50;99.90;;;;;;5030362;28;20098;-86
2023/01/14 12:36:53;;;;;;;4.60;2.25;;;;;;;;;;5051849;28;20502;-86
2023/01/14 12:45:44;;;;;;;5.45;2.20;;;;;;;;;;5048086;28;20045;-86
2023/01/14 12:48:11;;;;;;;5.68;2.40;;;;;;;;;;5031282;28;20087;-86
2023/01/14 12:50:42;;;;;;;5.15;2.22;;;;;;;;;;5047972;28;20037;-86
2023/01/14 12:53:16;;;;;;;4.07;1.80;;;;;;;;;;5048027;28;20138;-85
2023/01/14 12:55:46;;;;;;;5.50;2.45;;;8.80;99.90;;;;;;5048260;28;20048;-86
2023/01/14 12:58:21;;;;;;;3.65;1.98;;;8.50;99.90;;;;;;5047971;28;20521;-85
2023/01/14 13:00:52;;;;;;;3.83;2.10;;;;;;;;;;5047908;28;20049;-86
2023/01/14 13:03:27;;;;;;;9.25;2.33;;;;;;;;;;5048692;28;20068;-85
2023/01/14 13:05:53;;;;;;;4.22;1.80;;;;;;;;;;5051686;28;20045;-86
2023/01/14 13:08:32;;;;;;;4.05;1.63;;;8.80;99.90;;;;;;5051609;28;20033;-86
2023/01/14 13:11:02;;;;;;;2.13;1.45;;;8.90;99.90;;;;;;5027558;28;20041;-86
2023/01/14 13:13:30;;;;;;;2.35;1.60;;;8.80;99.90;;;;;;5045774;28;20383;-87
2023/01/14 13:15:57;;;;;;;4.38;1.67;;;;;;;;;;5051492;28;20502;-85
2023/01/14 13:18:35;;;;;;;4.60;1.60;;;;;;;;;;5051541;28;20040;-86
2023/01/14 13:21:07;;;;;;;3.90;1.90;;;9.10;99.90;;;;;;5051304;28;20090;-89
2023/01/14 13:23:36;;;;;;;2.90;1.88;;;;;;;;;;5051661;28;20130;-88
2023/01/14 13:26:02;;;;;;;3.35;1.67;;;;;;;;;;5051363;28;20062;-88
2023/01/14 13:28:28;;;;;;;3.25;1.83;;;;;;;;;;5051463;28;20111;-89
2023/01/14 13:31:02;;;;;;;2.45;2.13;;;;;;;;;;5051437;28;20037;-87
2023/01/14 13:33:37;;;;;;;3.17;1.55;;;;;;;;;;5051737;28;20129;-85
2023/01/14 13:36:09;;;;;;;2.70;2.00;;;;;;;;;;5051106;28;20048;-87
2023/01/14 13:38:41;;;;;;;1.85;1.67;;;;;;;;;;5052238;28;20041;-87
2023/01/14 13:41:08;;;;;;;4.25;1.75;;;;;;;;;;5037540;28;20048;-87
2023/01/14 13:43:46;;;;;;;2.47;1.92;;;;;;;;;;5054494;28;20172;-86
2023/01/14 13:46:18;;;;;;;4.40;2.58;;;9.20;99.90;;;;;;5037375;28;20044;-87
2023/01/14 13:48:51;;;;;;;3.17;2.00;;;;;;;;;;5027850;28;20422;-85
2023/01/14 13:51:17;;;;;;;3.65;2.35;;;;;;;;;;5050483;28;20040;-86
2023/01/14 13:53:56;;;;;;;2.63;2.00;;;;;;;;;;5054213;28;20592;-87
2023/01/14 13:56:22;;;;;;;4.15;1.95;;;;;;;;;;5053836;28;20044;-85
2023/01/14 13:58:51;;;;;;;3.83;2.03;;;9.60;99.90;;;;;;5049839;28;20094;-84
2023/01/14 14:01:29;;;;;;;4.43;2.05;;;;;;;;;;5051220;28;20048;-84
2023/01/14 14:04:03;;;;;;;3.38;2.00;;;9.60;99.90;;;;;;5038561;28;20097;-85
2023/01/14 14:06:31;;;;;;;4.07;2.13;;;;;;;;;;5038284;28;20072;-86
2023/01/14 14:09:01;;;;;;;2.15;1.95;;;;;;;;;;5051494;28;20037;-87
2023/01/14 14:11:33;;;;;;;3.67;2.10;;;9.70;99.90;;;;;;5052167;28;20123;-85
2023/01/14 14:14:04;;;;;;;5.63;2.00;;;;;;;;;;5036200;28;20041;-85
2023/01/14 14:16:33;;;;;;;3.40;1.95;;;9.60;99.90;;;;;;5056886;28;20076;-86
2023/01/14 14:19:15;;;;;;;3.53;1.98;;;9.60;99.90;;;;;;5060814;28;20044;-87
2023/01/14 14:21:47;;;;;;;2.50;2.13;;;;;;;;;;5054264;28;20044;-90
2023/01/14 14:24:18;;;;;;;2.22;1.90;;;;;;;;;;5043606;28;20665;-86
2023/01/14 14:26:45;;;;;;;3.20;1.50;;;9.90;99.90;;;;;;5054759;28;20499;-86
2023/01/14 14:29:13;;;;;;;2.45;1.67;;;10.00;99.90;;;;;;5034457;28;20036;-85
2023/01/14 14:31:41;;;;;;;2.10;1.90;;;9.90;99.90;;;;;;5054070;28;20041;-85
2023/01/14 14:34:23;;;;;;;3.47;2.40;;;9.70;99.90;;;;;;5051056;28;20571;-84
2023/01/14 14:36:55;;;;;;;3.25;2.00;;;;;;;;;;5044751;28;20047;-85
2023/01/14 14:39:36;;;;;;;2.97;2.78;;;9.90;99.90;;;;;;5050449;28;20522;-85
2023/01/14 14:42:04;;;;;;;2.33;2.13;;;;;;;;;;5033805;28;20045;-86
2023/01/14 14:44:31;;;;;;;1.92;1.73;;;9.70;99.90;;;;;;5033885;28;20449;-85
2023/01/14 14:47:20;;;;;;;3.45;2.10;;;10.00;99.90;;;;;;5033984;28;20045;-85
2023/01/14 14:49:46;;;;;;;2.33;2.10;;;;;;;;;;5050371;28;20082;-87
2023/01/14 14:52:19;;;;;;;1.90;1.60;;;10.00;99.90;;;;;;5033352;28;20131;-85
2023/01/14 14:54:46;;;;;;;2.20;1.85;;;;;;;;;;5050040;28;20076;-84
2023/01/14 14:57:14;;;;;;;2.17;1.77;;;;;;;;;;5050452;28;20110;-85
2023/01/14 14:59:40;;;;;;;2.10;1.90;;;;;;;;;;5050360;28;20486;-83
2023/01/14 15:02:19;;;;;;;2.85;2.22;;;;;;;;;;5049622;28;20052;-84
2023/01/14 15:04:46;;;;;;;4.70;2.30;;;;;;;;;;5049811;28;20116;-84
2023/01/14 15:07:13;;;;;;;2.50;2.22;;;;;;;;;;5050318;28;20410;-83
2023/01/14 15:09:39;;;;;;;5.65;2.40;;;;;;;;;;5022772;28;20048;-84
2023/01/14 15:12:10;;;;;;;3.92;2.20;;;;;;;;;;5032344;28;20053;-85
2023/01/14 15:14:36;;;;;;;3.78;2.47;;;;;;;;;;5049871;28;20045;-87
2023/01/14 15:17:02;;;;;;;4.20;2.38;;;;;;;;;;5034106;28;20766;-85
2023/01/14 15:19:30;;;;;;;2.50;2.30;;;;;;;;;;5050166;28;20051;-85